createdAt,value
2023-03-11T00:01:08.112Z,97770.19
2023-03-11T00:03:35.732Z,97769.34
2023-03-11T00:06:04.054Z,97763.59
2023-03-11T00:08:31.527Z,97759.78
2023-03-11T00:11:00.645Z,97753.72
2023-03-11T00:13:28.928Z,97764.72
2023-03-11T00:15:57.797Z,97758.72
2023-03-11T00:18:27.939Z,97764.16
2023-03-11T00:20:56.355Z,97759.87
2023-03-11T00:23:24.726Z,97743.16
2023-03-11T00:25:52.534Z,97750.28
2023-03-11T00:28:22.197Z,97738.66
2023-03-11T00:30:49.588Z,97754.63
2023-03-11T00:33:17.359Z,97756.06
2023-03-11T00:35:45.096Z,97766.94
2023-03-11T00:38:15.415Z,97755.03
2023-03-11T00:40:44.590Z,97752.97
2023-03-11T00:43:12.018Z,97760.63
2023-03-11T00:45:39.493Z,97766.84
2023-03-11T00:48:07.865Z,97762.75
2023-03-11T00:50:37.074Z,97767.56
2023-03-11T00:53:05.254Z,97767.44
2023-03-11T00:55:34.247Z,97772.22
2023-03-11T00:58:04.877Z,97780.53
2023-03-11T01:00:32.703Z,97781.19
2023-03-11T01:03:00.687Z,97784.56
2023-03-11T01:05:30.372Z,97778.28
2023-03-11T01:07:58.559Z,97778.38
2023-03-11T01:10:28.525Z,97783.87
2023-03-11T01:12:56.019Z,97777.31
2023-03-11T01:15:32.986Z,97777.34
2023-03-11T01:18:01.188Z,97774.34
2023-03-11T01:20:28.884Z,97769.66
2023-03-11T01:22:56.418Z,97764.44
2023-03-11T01:25:25.221Z,97771.97
2023-03-11T01:27:52.562Z,97766.44
2023-03-11T01:30:23.198Z,97765.28
2023-03-11T01:32:52.296Z,97771.56
2023-03-11T01:35:22.194Z,97764.69
2023-03-11T01:37:49.545Z,97765.28
2023-03-11T01:40:19.126Z,97767.87
2023-03-11T01:42:46.816Z,97774.16
2023-03-11T01:45:39.660Z,97765.13
2023-03-11T01:48:09.248Z,97753.69
2023-03-11T01:50:41.492Z,97768.66
2023-03-11T01:53:09.594Z,97763.72
2023-03-11T01:55:37.280Z,97760.87
2023-03-11T01:58:08.825Z,97767.81
2023-03-11T02:00:37.968Z,97772.19
2023-03-11T02:03:14.761Z,97765.88
2023-03-11T02:05:42.631Z,97770.16
2023-03-11T02:08:10.474Z,97772.56
2023-03-11T02:10:41.621Z,97779.59
2023-03-11T02:13:09.225Z,97783.16
2023-03-11T02:15:39.789Z,97765.84
2023-03-11T02:18:08.163Z,97768.16
2023-03-11T02:20:53.034Z,97772.78
2023-03-11T02:23:25.981Z,97767.03
2023-03-11T02:26:00.655Z,97767.25
2023-03-11T02:28:28.538Z,97759.47
2023-03-11T02:30:56.940Z,97766.59
2023-03-11T02:33:27.425Z,97762.88
2023-03-11T02:35:55.207Z,97757.94
2023-03-11T02:38:23.648Z,97753.53
2023-03-11T02:40:56.589Z,97771.81
2023-03-11T02:43:39.845Z,97773.00
2023-03-11T02:46:10.120Z,97773.31
2023-03-11T02:48:38.982Z,97768.91
2023-03-11T02:51:06.478Z,97778.06
2023-03-11T02:53:37.990Z,97776.31
2023-03-11T02:56:06.195Z,97779.75
2023-03-11T02:58:33.912Z,97782.06
2023-03-11T03:01:01.375Z,97795.56
2023-03-11T03:03:29.109Z,97787.56
2023-03-11T03:05:56.505Z,97794.94
2023-03-11T03:08:23.922Z,97792.41
2023-03-11T03:10:51.678Z,97787.66
2023-03-11T03:13:19.233Z,97813.56
2023-03-11T03:15:46.665Z,97811.84
2023-03-11T03:18:14.374Z,97815.91
2023-03-11T03:20:41.896Z,97813.59
2023-03-11T03:23:09.367Z,97823.13
2023-03-11T03:25:37.368Z,97825.56
2023-03-11T03:28:05.207Z,97834.72
2023-03-11T03:30:33.641Z,97820.28
2023-03-11T03:33:01.277Z,97810.59
2023-03-11T03:35:29.716Z,97818.09
2023-03-11T03:37:57.484Z,97826.03
2023-03-11T03:40:25.287Z,97814.81
2023-03-11T03:42:52.986Z,97824.25
2023-03-11T03:45:20.701Z,97799.78
2023-03-11T03:47:48.877Z,97818.25
2023-03-11T03:50:17.688Z,97832.16
2023-03-11T03:52:45.638Z,97834.22
2023-03-11T03:55:13.453Z,97817.62
2023-03-11T03:57:40.953Z,97827.69
2023-03-11T04:00:10.408Z,97821.91
2023-03-11T04:02:41.105Z,97835.59
2023-03-11T04:05:09.418Z,97835.38
2023-03-11T04:07:37.828Z,97843.31
2023-03-11T04:10:06.422Z,97837.22
2023-03-11T04:12:34.591Z,97844.31
2023-03-11T04:15:02.275Z,97847.62
2023-03-11T04:17:29.881Z,97863.06
2023-03-11T04:19:57.569Z,97868.97
2023-03-11T04:22:25.325Z,97881.03
2023-03-11T04:24:52.896Z,97860.41
2023-03-11T04:27:20.661Z,97866.87
2023-03-11T04:29:48.358Z,97858.00
2023-03-11T04:32:16.089Z,97864.63
2023-03-11T04:34:44.752Z,97863.25
2023-03-11T04:37:13.911Z,97864.38
2023-03-11T04:39:41.802Z,97875.28
2023-03-11T04:42:09.678Z,97869.41
2023-03-11T04:44:37.673Z,97858.38
2023-03-11T04:47:05.832Z,97852.50
2023-03-11T04:49:34.047Z,97829.13
2023-03-11T04:52:01.781Z,97849.22
2023-03-11T04:54:29.449Z,97848.00
2023-03-11T04:56:57.117Z,97854.97
2023-03-11T04:59:25.128Z,97865.28
2023-03-11T05:01:52.795Z,97849.47
2023-03-11T05:04:20.830Z,97837.56
2023-03-11T05:06:51.215Z,97839.13
2023-03-11T05:09:18.842Z,97874.19
2023-03-11T05:11:46.656Z,97849.16
2023-03-11T05:14:14.845Z,97856.31
2023-03-11T05:16:42.319Z,97858.56
2023-03-11T05:19:29.423Z,97869.47
2023-03-11T05:21:57.607Z,97857.22
2023-03-11T05:24:28.785Z,97880.16
2023-03-11T05:26:56.781Z,97886.91
2023-03-11T05:29:25.152Z,97879.78
2023-03-11T05:31:53.657Z,97892.31
2023-03-11T05:34:21.455Z,97899.56
2023-03-11T05:36:49.013Z,97910.19
2023-03-11T05:39:17.255Z,97911.38
2023-03-11T05:41:45.050Z,97914.75
2023-03-11T05:44:12.524Z,97917.38
2023-03-11T05:46:40.881Z,97943.53
2023-03-11T05:49:08.233Z,97945.31
2023-03-11T05:51:36.596Z,97931.16
2023-03-11T05:54:04.371Z,97946.53
2023-03-11T05:56:33.749Z,97938.41
2023-03-11T05:59:01.279Z,97926.41
2023-03-11T06:01:29.359Z,97928.13
2023-03-11T06:03:57.179Z,97938.69
2023-03-11T06:06:24.666Z,97951.44
2023-03-11T06:08:52.161Z,97949.88
2023-03-11T06:11:20.587Z,97956.97
2023-03-11T06:13:48.073Z,97938.03
2023-03-11T06:16:15.625Z,97956.69
2023-03-11T06:18:43.457Z,97951.19
2023-03-11T06:21:17.096Z,97973.94
2023-03-11T06:23:45.013Z,97988.91
2023-03-11T06:26:15.104Z,97981.31
2023-03-11T06:28:43.803Z,97997.09
2023-03-11T06:31:14.786Z,98003.47
2023-03-11T06:33:42.259Z,98026.94
2023-03-11T06:36:11.113Z,98018.03
2023-03-11T06:38:38.804Z,98021.50
2023-03-11T06:41:07.166Z,98030.97
2023-03-11T06:43:36.133Z,98052.66
2023-03-11T06:46:11.768Z,98051.16
2023-03-11T06:48:39.444Z,98060.72
2023-03-11T06:51:07.526Z,98059.03
2023-03-11T06:53:34.968Z,98049.97
2023-03-11T06:56:08.115Z,98063.38
2023-03-11T06:58:38.504Z,98057.81
2023-03-11T07:01:14.992Z,98049.13
2023-03-11T07:03:43.357Z,98062.31
2023-03-11T07:06:16.509Z,98056.47
2023-03-11T07:08:46.616Z,98054.19
2023-03-11T07:11:15.487Z,98063.59
2023-03-11T07:13:43.432Z,98075.56
2023-03-11T07:16:19.473Z,98070.78
2023-03-11T07:18:49.410Z,98070.22
2023-03-11T07:21:21.215Z,98082.44
2023-03-11T07:23:51.886Z,98080.91
2023-03-11T07:26:20.132Z,98079.91
2023-03-11T07:28:49.376Z,98080.63
2023-03-11T07:31:19.725Z,98085.28
2023-03-11T07:33:47.571Z,98083.19
2023-03-11T07:36:20.019Z,98066.97
2023-03-11T07:38:47.820Z,98071.25
2023-03-11T07:41:16.180Z,98073.84
2023-03-11T07:43:44.702Z,98072.06
2023-03-11T07:46:16.459Z,98062.56
2023-03-11T07:48:44.505Z,98063.34
2023-03-11T07:51:14.726Z,98076.66
2023-03-11T07:53:42.485Z,98074.75
2023-03-11T07:56:11.526Z,98076.19
2023-03-11T07:58:39.964Z,98070.41
2023-03-11T08:01:10.609Z,98071.19
2023-03-11T08:03:39.163Z,98072.91
2023-03-11T08:06:17.320Z,98080.69
2023-03-11T08:08:44.943Z,98046.53
2023-03-11T08:11:13.543Z,98060.28
2023-03-11T08:13:41.963Z,98065.47
2023-03-11T08:16:11.148Z,98072.34
2023-03-11T08:18:38.667Z,98078.63
2023-03-11T08:21:07.303Z,98114.84
2023-03-11T08:23:35.453Z,98118.31
2023-03-11T08:26:07.620Z,98090.47
2023-03-11T08:28:35.205Z,98092.50
2023-03-11T08:31:02.857Z,98056.31
2023-03-11T08:33:30.235Z,98084.75
2023-03-11T08:35:58.044Z,98052.00
2023-03-11T08:38:25.629Z,98012.59
2023-03-11T08:40:53.246Z,98022.47
2023-03-11T08:43:20.911Z,98023.03
2023-03-11T08:45:48.452Z,98016.88
2023-03-11T08:48:15.966Z,98024.78
2023-03-11T08:50:53.357Z,98032.50
2023-03-11T08:53:22.836Z,98052.59
2023-03-11T08:55:51.689Z,98064.09
2023-03-11T08:58:19.871Z,98087.75
2023-03-11T09:00:47.527Z,98061.88
2023-03-11T09:03:15.262Z,98080.81
2023-03-11T09:05:42.662Z,98091.88
2023-03-11T09:08:10.076Z,98114.84
2023-03-11T09:10:37.700Z,98098.16
2023-03-11T09:13:05.023Z,98126.63
2023-03-11T09:15:32.518Z,98143.47
2023-03-11T09:18:00.150Z,98142.03
2023-03-11T09:20:27.548Z,98152.28
2023-03-11T09:22:55.007Z,98164.06
2023-03-11T09:25:22.702Z,98147.50
2023-03-11T09:27:50.152Z,98171.94
2023-03-11T09:30:17.733Z,98178.13
2023-03-11T09:32:45.399Z,98182.38
2023-03-11T09:35:13.006Z,98183.09
2023-03-11T09:37:40.432Z,98177.44
2023-03-11T09:40:09.046Z,98178.87
2023-03-11T09:42:45.962Z,98187.56
2023-03-11T09:45:20.068Z,98196.09
2023-03-11T09:48:16.686Z,98195.09
2023-03-11T09:50:51.276Z,98197.22
2023-03-11T09:53:34.295Z,98195.44
2023-03-11T09:56:06.683Z,98196.75
2023-03-11T09:58:48.998Z,98190.59
2023-03-11T10:01:17.545Z,98202.84
2023-03-11T10:03:45.762Z,98209.97
2023-03-11T10:06:25.494Z,98212.56
2023-03-11T10:09:05.147Z,98206.50
2023-03-11T10:11:46.969Z,98203.31
2023-03-11T10:14:20.128Z,98203.19
2023-03-11T10:16:53.408Z,98202.75
2023-03-11T10:19:33.345Z,98192.84
2023-03-11T10:22:16.760Z,98208.50
2023-03-11T10:24:52.880Z,98222.28
2023-03-11T10:27:24.334Z,98233.41
2023-03-11T10:30:18.339Z,98250.00
2023-03-11T10:33:00.122Z,98254.25
2023-03-11T10:35:37.228Z,98286.66
2023-03-11T10:38:21.308Z,98280.81
2023-03-11T10:40:51.549Z,98274.88
2023-03-11T10:43:24.491Z,98286.72
2023-03-11T10:45:52.551Z,98290.84
2023-03-11T10:48:21.036Z,98281.03
2023-03-11T10:50:59.017Z,98272.16
2023-03-11T10:53:27.061Z,98289.91
2023-03-11T10:55:57.010Z,98260.91
2023-03-11T10:58:29.641Z,98264.44
2023-03-11T11:01:17.332Z,98271.03
2023-03-11T11:03:50.731Z,98291.84
2023-03-11T11:06:33.636Z,98285.16
2023-03-11T11:09:21.020Z,98284.97
2023-03-11T11:12:05.792Z,98296.13
2023-03-11T11:14:44.743Z,98292.66
2023-03-11T11:17:23.567Z,98293.28
2023-03-11T11:19:51.535Z,98303.72
2023-03-11T11:22:21.190Z,98311.44
2023-03-11T11:24:51.368Z,98320.53
2023-03-11T11:27:20.343Z,98313.56
2023-03-11T11:29:49.259Z,98325.63
2023-03-11T11:32:20.878Z,98324.44
2023-03-11T11:35:15.503Z,98302.75
2023-03-11T11:37:46.463Z,98317.06
2023-03-11T11:40:14.322Z,98309.63
2023-03-11T11:42:44.852Z,98332.91
2023-03-11T11:45:16.281Z,98331.06
2023-03-11T11:47:47.540Z,98338.06
2023-03-11T11:50:23.855Z,98339.94
2023-03-11T11:52:57.247Z,98341.41
2023-03-11T11:55:27.073Z,98344.94
2023-03-11T11:57:54.791Z,98338.19
2023-03-11T12:00:25.883Z,98337.00
2023-03-11T12:03:13.426Z,98353.97
2023-03-11T12:05:52.447Z,98344.63
2023-03-11T12:08:43.057Z,98351.00
2023-03-11T12:11:27.248Z,98339.56
2023-03-11T12:14:21.225Z,98345.72
2023-03-11T12:16:56.988Z,98349.22
2023-03-11T12:19:46.564Z,98339.66
2023-03-11T12:22:34.953Z,98339.31
2023-03-11T12:25:38.100Z,98329.69
2023-03-11T12:28:22.324Z,98332.41
2023-03-11T12:30:53.610Z,98336.78
2023-03-11T12:33:55.589Z,98312.69
2023-03-11T12:36:32.099Z,98315.00
2023-03-11T12:39:01.422Z,98303.63
2023-03-11T12:41:42.018Z,98307.28
2023-03-11T12:44:29.686Z,98322.72
2023-03-11T12:47:00.087Z,98320.62
2023-03-11T12:49:35.900Z,98326.25
2023-03-11T12:52:15.983Z,98319.56
2023-03-11T12:54:44.912Z,98347.91
2023-03-11T12:58:02.983Z,98339.00
2023-03-11T13:00:45.354Z,98348.06
2023-03-11T13:03:36.148Z,98349.97
2023-03-11T13:06:34.507Z,98360.66
2023-03-11T13:09:02.311Z,98378.44
2023-03-11T13:11:36.132Z,98366.12
2023-03-11T13:14:28.484Z,98376.53
2023-03-11T13:16:57.513Z,98401.88
2023-03-11T13:19:35.528Z,98400.41
2023-03-11T13:22:05.305Z,98405.12
2023-03-11T13:24:32.893Z,98409.38
2023-03-11T13:27:01.765Z,98402.72
2023-03-11T13:29:49.077Z,98414.47
2023-03-11T13:32:17.112Z,98409.31
2023-03-11T13:35:22.268Z,98419.03
2023-03-11T13:38:11.160Z,98433.53
2023-03-11T13:40:39.873Z,98423.94
2023-03-11T13:43:17.616Z,98425.84
2023-03-11T13:45:52.670Z,98445.72
2023-03-11T13:48:26.160Z,98470.03
2023-03-11T13:50:59.386Z,98455.78
2023-03-11T13:53:34.758Z,98474.06
2023-03-11T13:56:02.217Z,98491.19
2023-03-11T13:58:32.920Z,98503.28
2023-03-11T14:01:01.888Z,98491.56
2023-03-11T14:03:34.857Z,98506.00
2023-03-11T14:06:05.293Z,98503.53
2023-03-11T14:08:35.132Z,98521.66
2023-03-11T14:11:09.741Z,98512.00
2023-03-11T14:13:42.407Z,98527.34
2023-03-11T14:16:24.883Z,98518.44
2023-03-11T14:19:05.150Z,98524.78
2023-03-11T14:21:33.653Z,98546.22
2023-03-11T14:24:02.618Z,98541.56
2023-03-11T14:26:34.480Z,98558.97
2023-03-11T14:29:09.343Z,98547.66
2023-03-11T14:31:38.705Z,98563.47
2023-03-11T14:34:20.673Z,98561.81
2023-03-11T14:36:51.034Z,98559.94
2023-03-11T14:39:30.724Z,98567.06
2023-03-11T14:42:18.709Z,98554.16
2023-03-11T14:44:55.559Z,98580.00
2023-03-11T14:47:30.299Z,98566.22
2023-03-11T14:49:58.574Z,98551.59
2023-03-11T14:52:37.324Z,98567.22
2023-03-11T14:55:14.673Z,98577.63
2023-03-11T14:57:49.585Z,98584.50
2023-03-11T15:00:25.929Z,98576.03
2023-03-11T15:03:04.250Z,98574.13
2023-03-11T15:05:38.749Z,98587.88
2023-03-11T15:08:07.437Z,98589.63
2023-03-11T15:10:36.863Z,98610.97
2023-03-11T15:13:10.944Z,98602.53
2023-03-11T15:15:38.628Z,98625.03
2023-03-11T15:18:20.454Z,98611.25
2023-03-11T15:21:01.692Z,98618.22
2023-03-11T15:23:29.049Z,98631.19
2023-03-11T15:25:56.697Z,98635.53
2023-03-11T15:28:34.867Z,98650.13
2023-03-11T15:31:38.088Z,98640.72
2023-03-11T15:34:10.846Z,98650.16
2023-03-11T15:36:43.761Z,98653.63
2023-03-11T15:39:27.737Z,98648.41
2023-03-11T15:42:01.921Z,98666.44
2023-03-11T15:44:36.193Z,98656.84
2023-03-11T15:47:04.378Z,98663.78
2023-03-11T15:49:31.760Z,98674.19
2023-03-11T15:51:59.956Z,98672.38
2023-03-11T15:54:28.387Z,98688.88
2023-03-11T15:56:58.016Z,98687.00
2023-03-11T15:59:25.644Z,98693.13
2023-03-11T16:01:53.418Z,98681.91
2023-03-11T16:04:21.911Z,98701.81
2023-03-11T16:06:59.413Z,98693.22
2023-03-11T16:09:34.510Z,98710.50
2023-03-11T16:12:02.599Z,98709.56
2023-03-11T16:14:30.056Z,98713.03
2023-03-11T16:16:57.668Z,98727.66
2023-03-11T16:19:25.027Z,98724.28
2023-03-11T16:21:52.420Z,98728.59
2023-03-11T16:24:22.798Z,98738.88
2023-03-11T16:26:52.205Z,98732.91
2023-03-11T16:29:20.326Z,98742.38
2023-03-11T16:31:49.230Z,98752.72
2023-03-11T16:34:16.627Z,98754.41
2023-03-11T16:36:44.326Z,98751.87
2023-03-11T16:39:11.740Z,98744.97
2023-03-11T16:41:44.126Z,98747.53
2023-03-11T16:44:11.971Z,98750.13
2023-03-11T16:46:39.446Z,98755.22
2023-03-11T16:49:06.893Z,98754.34
2023-03-11T16:51:34.565Z,98775.06
2023-03-11T16:54:02.191Z,98755.19
2023-03-11T16:56:29.818Z,98776.81
2023-03-11T16:58:57.544Z,98780.13
2023-03-11T17:01:25.003Z,98799.13
2023-03-11T17:03:52.992Z,98799.91
2023-03-11T17:06:21.340Z,98807.81
2023-03-11T17:08:49.468Z,98818.97
2023-03-11T17:11:18.978Z,98821.59
2023-03-11T17:13:46.707Z,98823.25
2023-03-11T17:16:14.309Z,98836.16
2023-03-11T17:18:42.000Z,98838.81
2023-03-11T17:21:12.265Z,98848.22
2023-03-11T17:23:39.743Z,98853.38
2023-03-11T17:26:16.102Z,98848.25
2023-03-11T17:28:44.519Z,98855.97
2023-03-11T17:31:15.432Z,98855.97
2023-03-11T17:33:43.024Z,98855.03
2023-03-11T17:36:13.507Z,98877.53
2023-03-11T17:38:40.950Z,98887.00
2023-03-11T17:41:14.888Z,98894.72
2023-03-11T17:43:43.121Z,98901.59
2023-03-11T17:46:16.547Z,98914.44
2023-03-11T17:48:45.783Z,98915.25
2023-03-11T17:51:15.408Z,98910.22
2023-03-11T17:53:45.770Z,98909.25
2023-03-11T17:56:15.647Z,98919.59
2023-03-11T17:58:43.114Z,98919.66
2023-03-11T18:01:19.456Z,98920.59
2023-03-11T18:03:47.432Z,98914.66
2023-03-11T18:06:15.016Z,98931.75
2023-03-11T18:08:42.732Z,98923.81
2023-03-11T18:11:12.866Z,98923.63
2023-03-11T18:13:40.676Z,98923.72
2023-03-11T18:16:19.025Z,98939.16
2023-03-11T18:18:47.408Z,98939.16
2023-03-11T18:21:20.701Z,98952.88
2023-03-11T18:23:48.878Z,98951.31
2023-03-11T18:26:18.137Z,98962.31
2023-03-11T18:28:45.829Z,98964.91
2023-03-11T18:31:18.899Z,98966.66
2023-03-11T18:33:49.027Z,98961.69
2023-03-11T18:36:22.223Z,98966.91
2023-03-11T18:38:50.628Z,98971.28
2023-03-11T18:41:18.538Z,98985.59
2023-03-11T18:43:45.953Z,98987.19
2023-03-11T18:46:15.032Z,98977.78
2023-03-11T18:48:43.076Z,98983.81
2023-03-11T18:51:11.144Z,98988.13
2023-03-11T18:53:39.490Z,98994.06
2023-03-11T18:56:12.217Z,98988.00
2023-03-11T18:58:39.716Z,98985.53
2023-03-11T19:01:09.476Z,98999.22
2023-03-11T19:03:38.211Z,99005.22
2023-03-11T19:06:06.754Z,99004.16
2023-03-11T19:08:34.327Z,99007.75
2023-03-11T19:11:08.828Z,99013.69
2023-03-11T19:13:46.672Z,99019.03
2023-03-11T19:16:17.500Z,99025.63
2023-03-11T19:18:45.468Z,99039.41
2023-03-11T19:21:14.116Z,99037.69
2023-03-11T19:23:41.947Z,99039.38
2023-03-11T19:26:09.439Z,99036.03
2023-03-11T19:28:36.915Z,99050.41
2023-03-11T19:31:05.128Z,99059.03
2023-03-11T19:33:34.481Z,99049.69
2023-03-11T19:36:04.500Z,99053.19
2023-03-11T19:38:32.444Z,99049.94
2023-03-11T19:41:01.116Z,99049.91
2023-03-11T19:43:29.149Z,99054.38
2023-03-11T19:45:57.143Z,99058.66
2023-03-11T19:48:24.673Z,99054.16
2023-03-11T19:50:52.194Z,99056.44
2023-03-11T19:53:21.237Z,99077.06
2023-03-11T19:55:51.352Z,99057.16
2023-03-11T19:58:19.841Z,99058.13
2023-03-11T20:00:47.537Z,99056.06
2023-03-11T20:03:16.130Z,99046.75
2023-03-11T20:05:45.283Z,99033.25
2023-03-11T20:08:16.944Z,99009.22
2023-03-11T20:10:46.925Z,99037.44
2023-03-11T20:13:15.326Z,99042.59
2023-03-11T20:15:42.903Z,99049.31
2023-03-11T20:18:10.625Z,99057.13
2023-03-11T20:20:39.295Z,99058.00
2023-03-11T20:23:06.790Z,99060.75
2023-03-11T20:25:35.039Z,99072.69
2023-03-11T20:28:02.532Z,99059.03
2023-03-11T20:30:30.054Z,99059.66
2023-03-11T20:32:57.793Z,99066.53
2023-03-11T20:35:25.304Z,99069.28
2023-03-11T20:37:52.732Z,99078.53
2023-03-11T20:40:21.215Z,99067.34
2023-03-11T20:42:48.643Z,99062.00
2023-03-11T20:45:21.380Z,99076.16
2023-03-11T20:47:50.773Z,99057.69
2023-03-11T20:50:18.283Z,99066.69
2023-03-11T20:52:45.747Z,99077.84
2023-03-11T20:55:13.643Z,99083.81
2023-03-11T20:57:41.058Z,99074.66
2023-03-11T21:00:11.607Z,99088.38
2023-03-11T21:02:41.364Z,99093.06
2023-03-11T21:05:10.331Z,99097.56
2023-03-11T21:07:37.880Z,99098.69
2023-03-11T21:10:08.229Z,99105.62
2023-03-11T21:12:35.729Z,99105.78
2023-03-11T21:15:04.440Z,99107.72
2023-03-11T21:17:33.300Z,99117.41
2023-03-11T21:20:01.005Z,99120.19
2023-03-11T21:22:28.502Z,99120.97
2023-03-11T21:24:56.146Z,99127.47
2023-03-11T21:27:27.253Z,99122.28
2023-03-11T21:29:58.570Z,99126.91
2023-03-11T21:32:27.650Z,99143.72
2023-03-11T21:34:59.169Z,99145.59
2023-03-11T21:37:27.526Z,99148.03
2023-03-11T21:39:55.125Z,99152.78
2023-03-11T21:42:22.578Z,99149.34
2023-03-11T21:44:51.410Z,99150.03
2023-03-11T21:47:20.021Z,99160.78
2023-03-11T21:49:47.437Z,99154.25
2023-03-11T21:52:15.201Z,99169.75
2023-03-11T21:54:42.759Z,99165.31
2023-03-11T21:57:11.388Z,99163.69
2023-03-11T21:59:39.287Z,99160.28
2023-03-11T22:02:06.848Z,99168.63
2023-03-11T22:04:34.524Z,99158.69
2023-03-11T22:07:01.951Z,99157.69
2023-03-11T22:09:29.465Z,99156.00
2023-03-11T22:11:57.250Z,99159.00
2023-03-11T22:14:25.088Z,99171.34
2023-03-11T22:16:52.653Z,99171.72
2023-03-11T22:19:20.528Z,99167.22
2023-03-11T22:21:49.055Z,99171.88
2023-03-11T22:24:16.512Z,99176.31
2023-03-11T22:26:44.155Z,99179.78
2023-03-11T22:29:13.541Z,99175.00
2023-03-11T22:31:41.331Z,99194.53
2023-03-11T22:34:09.039Z,99198.59
2023-03-11T22:36:36.360Z,99201.28
2023-03-11T22:39:04.869Z,99212.34
2023-03-11T22:41:32.860Z,99218.28
2023-03-11T22:44:00.383Z,99227.00
2023-03-11T22:46:27.863Z,99223.25
2023-03-11T22:48:55.824Z,99228.16
2023-03-11T22:51:23.210Z,99228.34
2023-03-11T22:53:50.536Z,99235.72
2023-03-11T22:56:18.439Z,99246.16
2023-03-11T22:58:46.507Z,99248.19
2023-03-11T23:01:13.958Z,99260.63
2023-03-11T23:03:42.472Z,99262.63
2023-03-11T23:06:13.980Z,99270.97
2023-03-11T23:08:41.761Z,99273.41
2023-03-11T23:11:11.107Z,99276.34
2023-03-11T23:13:39.588Z,99261.44
2023-03-11T23:16:18.906Z,99277.66
2023-03-11T23:18:47.723Z,99280.34
2023-03-11T23:21:16.843Z,99276.44
2023-03-11T23:23:45.014Z,99269.78
2023-03-11T23:26:13.330Z,99263.91
2023-03-11T23:28:41.617Z,99268.19
2023-03-11T23:31:10.770Z,99276.94
2023-03-11T23:33:38.482Z,99276.50
2023-03-11T23:36:09.477Z,99280.72
2023-03-11T23:38:37.685Z,99288.00
2023-03-11T23:41:07.149Z,99287.81
2023-03-11T23:43:34.927Z,99292.53
2023-03-11T23:46:02.378Z,99290.28
2023-03-11T23:48:29.872Z,99300.59
2023-03-11T23:50:58.061Z,99300.69
2023-03-11T23:53:26.633Z,99298.44
2023-03-11T23:55:54.543Z,99299.19
2023-03-11T23:58:22.515Z,99293.56
